sensor_id;sensor_type;location;lat;lon;timestamp;P1;durP1;ratioP1;P2;durP2;ratioP2
1925;SDS011;964;42.606;23.588;2024-03-02T00:00:38;20.90;;;10.17;;
1925;SDS011;964;42.606;23.588;2024-03-02T00:03:05;19.47;;;10.83;;
1925;SDS011;964;42.606;23.588;2024-03-02T00:05:36;21.30;;;10.60;;
1925;SDS011;964;42.606;23.588;2024-03-02T00:08:04;14.30;;;6.83;;
1925;SDS011;964;42.606;23.588;2024-03-02T00:10:34;21.17;;;10.60;;
1925;SDS011;964;42.606;23.588;2024-03-02T00:13:04;20.20;;;11.33;;
1925;SDS011;964;42.606;23.588;2024-03-02T00:15:39;27.80;;;15.20;;
1925;SDS011;964;42.606;23.588;2024-03-02T00:18:08;28.57;;;15.73;;
1925;SDS011;964;42.606;23.588;2024-03-02T00:20:39;32.73;;;18.30;;
1925;SDS011;964;42.606;23.588;2024-03-02T00:23:07;13.03;;;8.70;;
1925;SDS011;964;42.606;23.588;2024-03-02T00:25:36;25.20;;;14.10;;
1925;SDS011;964;42.606;23.588;2024-03-02T00:28:10;28.03;;;14.63;;
1925;SDS011;964;42.606;23.588;2024-03-02T00:33:23;26.03;;;13.30;;
1925;SDS011;964;42.606;23.588;2024-03-02T00:35:54;32.13;;;16.87;;
1925;SDS011;964;42.606;23.588;2024-03-02T00:38:21;29.97;;;18.80;;
1925;SDS011;964;42.606;23.588;2024-03-02T00:40:48;32.77;;;17.67;;
1925;SDS011;964;42.606;23.588;2024-03-02T00:43:37;37.37;;;19.00;;
1925;SDS011;964;42.606;23.588;2024-03-02T00:46:07;32.40;;;17.20;;
1925;SDS011;964;42.606;23.588;2024-03-02T00:48:34;28.13;;;16.93;;
1925;SDS011;964;42.606;23.588;2024-03-02T00:51:03;28.37;;;14.97;;
1925;SDS011;964;42.606;23.588;2024-03-02T00:53:31;39.40;;;21.80;;
1925;SDS011;964;42.606;23.588;2024-03-02T00:55:58;31.87;;;17.00;;
1925;SDS011;964;42.606;23.588;2024-03-02T00:58:25;33.63;;;19.13;;
1925;SDS011;964;42.606;23.588;2024-03-02T01:00:52;19.40;;;10.83;;
1925;SDS011;964;42.606;23.588;2024-03-02T01:03:19;35.07;;;20.37;;
1925;SDS011;964;42.606;23.588;2024-03-02T01:05:46;38.10;;;18.30;;
1925;SDS011;964;42.606;23.588;2024-03-02T01:08:14;33.43;;;18.07;;
1925;SDS011;964;42.606;23.588;2024-03-02T01:10:41;31.30;;;19.30;;
1925;SDS011;964;42.606;23.588;2024-03-02T01:13:08;35.10;;;19.47;;
1925;SDS011;964;42.606;23.588;2024-03-02T01:15:35;28.40;;;15.53;;
1925;SDS011;964;42.606;23.588;2024-03-02T01:18:02;28.13;;;16.27;;
1925;SDS011;964;42.606;23.588;2024-03-02T01:20:29;27.27;;;15.80;;
1925;SDS011;964;42.606;23.588;2024-03-02T01:22:56;16.67;;;9.60;;
1925;SDS011;964;42.606;23.588;2024-03-02T01:25:24;26.63;;;16.83;;
1925;SDS011;964;42.606;23.588;2024-03-02T01:27:51;28.97;;;18.07;;
1925;SDS011;964;42.606;23.588;2024-03-02T01:30:18;38.80;;;19.10;;
1925;SDS011;964;42.606;23.588;2024-03-02T01:32:45;33.03;;;18.23;;
1925;SDS011;964;42.606;23.588;2024-03-02T01:35:11;31.73;;;19.20;;
1925;SDS011;964;42.606;23.588;2024-03-02T01:37:39;33.20;;;17.70;;
1925;SDS011;964;42.606;23.588;2024-03-02T01:40:07;32.67;;;19.30;;
1925;SDS011;964;42.606;23.588;2024-03-02T01:42:36;28.07;;;16.33;;
1925;SDS011;964;42.606;23.588;2024-03-02T01:45:04;33.97;;;18.53;;
1925;SDS011;964;42.606;23.588;2024-03-02T01:47:31;26.30;;;14.00;;
1925;SDS011;964;42.606;23.588;2024-03-02T01:49:58;29.93;;;17.90;;
1925;SDS011;964;42.606;23.588;2024-03-02T01:52:25;28.37;;;15.67;;
1925;SDS011;964;42.606;23.588;2024-03-02T01:54:53;33.97;;;19.13;;
1925;SDS011;964;42.606;23.588;2024-03-02T01:57:20;32.90;;;18.43;;
1925;SDS011;964;42.606;23.588;2024-03-02T01:59:48;30.27;;;17.10;;
1925;SDS011;964;42.606;23.588;2024-03-02T02:02:15;29.80;;;16.87;;
1925;SDS011;964;42.606;23.588;2024-03-02T02:04:42;31.33;;;17.07;;
1925;SDS011;964;42.606;23.588;2024-03-02T02:07:09;33.00;;;20.13;;
1925;SDS011;964;42.606;23.588;2024-03-02T02:09:36;31.50;;;16.10;;
1925;SDS011;964;42.606;23.588;2024-03-02T02:12:03;31.37;;;18.03;;
1925;SDS011;964;42.606;23.588;2024-03-02T02:14:32;30.60;;;17.00;;
1925;SDS011;964;42.606;23.588;2024-03-02T02:17:00;35.47;;;17.40;;
1925;SDS011;964;42.606;23.588;2024-03-02T02:19:27;38.23;;;17.80;;
1925;SDS011;964;42.606;23.588;2024-03-02T02:21:55;31.67;;;18.77;;
1925;SDS011;964;42.606;23.588;2024-03-02T02:24:22;32.53;;;17.90;;
1925;SDS011;964;42.606;23.588;2024-03-02T02:26:49;34.63;;;19.50;;
1925;SDS011;964;42.606;23.588;2024-03-02T02:29:15;32.77;;;19.67;;
1925;SDS011;964;42.606;23.588;2024-03-02T02:31:42;35.07;;;18.77;;
1925;SDS011;964;42.606;23.588;2024-03-02T02:34:09;35.90;;;19.33;;
1925;SDS011;964;42.606;23.588;2024-03-02T02:36:36;35.40;;;18.97;;
1925;SDS011;964;42.606;23.588;2024-03-02T02:39:07;43.63;;;21.97;;
1925;SDS011;964;42.606;23.588;2024-03-02T02:41:37;36.13;;;19.90;;
1925;SDS011;964;42.606;23.588;2024-03-02T02:44:04;31.67;;;18.60;;
1925;SDS011;964;42.606;23.588;2024-03-02T02:46:31;34.80;;;20.17;;
1925;SDS011;964;42.606;23.588;2024-03-02T02:48:58;34.80;;;18.67;;
1925;SDS011;964;42.606;23.588;2024-03-02T02:51:24;31.37;;;16.50;;
1925;SDS011;964;42.606;23.588;2024-03-02T02:53:51;32.27;;;18.93;;
1925;SDS011;964;42.606;23.588;2024-03-02T02:56:19;32.03;;;19.80;;
1925;SDS011;964;42.606;23.588;2024-03-02T02:58:46;35.07;;;18.90;;
1925;SDS011;964;42.606;23.588;2024-03-02T03:01:13;29.13;;;16.50;;
1925;SDS011;964;42.606;23.588;2024-03-02T03:03:42;39.17;;;21.87;;
1925;SDS011;964;42.606;23.588;2024-03-02T03:06:09;33.93;;;20.53;;
1925;SDS011;964;42.606;23.588;2024-03-02T03:08:35;31.33;;;18.80;;
1925;SDS011;964;42.606;23.588;2024-03-02T03:11:02;28.73;;;15.27;;
1925;SDS011;964;42.606;23.588;2024-03-02T03:13:31;28.93;;;15.70;;
1925;SDS011;964;42.606;23.588;2024-03-02T03:15:58;35.43;;;17.17;;
1925;SDS011;964;42.606;23.588;2024-03-02T03:18:25;30.33;;;16.87;;
1925;SDS011;964;42.606;23.588;2024-03-02T03:20:51;30.03;;;18.33;;
1925;SDS011;964;42.606;23.588;2024-03-02T03:23:18;30.63;;;18.37;;
1925;SDS011;964;42.606;23.588;2024-03-02T03:25:45;30.87;;;16.67;;
1925;SDS011;964;42.606;23.588;2024-03-02T03:28:12;35.30;;;18.10;;
1925;SDS011;964;42.606;23.588;2024-03-02T03:30:40;31.23;;;14.97;;
1925;SDS011;964;42.606;23.588;2024-03-02T03:33:08;32.77;;;16.97;;
1925;SDS011;964;42.606;23.588;2024-03-02T03:35:35;35.30;;;15.23;;
1925;SDS011;964;42.606;23.588;2024-03-02T03:38:03;27.03;;;15.67;;
1925;SDS011;964;42.606;23.588;2024-03-02T03:40:30;29.30;;;17.40;;
1925;SDS011;964;42.606;23.588;2024-03-02T03:42:57;29.03;;;14.70;;
1925;SDS011;964;42.606;23.588;2024-03-02T03:45:25;29.17;;;15.83;;
1925;SDS011;964;42.606;23.588;2024-03-02T03:47:53;33.37;;;16.37;;
1925;SDS011;964;42.606;23.588;2024-03-02T03:50:20;29.23;;;15.57;;
1925;SDS011;964;42.606;23.588;2024-03-02T03:52:46;28.87;;;15.10;;
1925;SDS011;964;42.606;23.588;2024-03-02T03:55:13;32.13;;;17.03;;
1925;SDS011;964;42.606;23.588;2024-03-02T03:57:40;33.87;;;16.50;;
1925;SDS011;964;42.606;23.588;2024-03-02T04:00:07;34.57;;;17.70;;
1925;SDS011;964;42.606;23.588;2024-03-02T04:02:36;44.87;;;18.47;;
1925;SDS011;964;42.606;23.588;2024-03-02T04:05:05;38.10;;;18.27;;
1925;SDS011;964;42.606;23.588;2024-03-02T04:07:34;38.83;;;18.47;;
1925;SDS011;964;42.606;23.588;2024-03-02T04:10:06;33.17;;;17.83;;
1925;SDS011;964;42.606;23.588;2024-03-02T04:12:34;49.37;;;20.00;;
1925;SDS011;964;42.606;23.588;2024-03-02T04:15:02;39.80;;;20.20;;
1925;SDS011;964;42.606;23.588;2024-03-02T04:17:31;37.70;;;17.73;;
1925;SDS011;964;42.606;23.588;2024-03-02T04:19:58;39.40;;;18.47;;
1925;SDS011;964;42.606;23.588;2024-03-02T04:22:27;32.60;;;16.73;;
1925;SDS011;964;42.606;23.588;2024-03-02T04:24:54;34.80;;;17.20;;
1925;SDS011;964;42.606;23.588;2024-03-02T04:27:21;32.57;;;17.87;;
1925;SDS011;964;42.606;23.588;2024-03-02T04:29:48;37.23;;;18.47;;
1925;SDS011;964;42.606;23.588;2024-03-02T04:32:14;36.43;;;18.90;;
1925;SDS011;964;42.606;23.588;2024-03-02T04:34:41;38.90;;;18.43;;
1925;SDS011;964;42.606;23.588;2024-03-02T04:37:09;35.17;;;19.27;;
1925;SDS011;964;42.606;23.588;2024-03-02T04:39:41;36.57;;;19.13;;
1925;SDS011;964;42.606;23.588;2024-03-02T04:42:07;41.93;;;19.50;;
1925;SDS011;964;42.606;23.588;2024-03-02T04:44:34;39.93;;;18.67;;
1925;SDS011;964;42.606;23.588;2024-03-02T04:47:02;39.07;;;19.37;;
1925;SDS011;964;42.606;23.588;2024-03-02T04:49:29;38.93;;;18.30;;
1925;SDS011;964;42.606;23.588;2024-03-02T04:51:56;34.67;;;18.37;;
1925;SDS011;964;42.606;23.588;2024-03-02T04:54:23;37.63;;;18.00;;
1925;SDS011;964;42.606;23.588;2024-03-02T04:56:51;38.50;;;19.10;;
1925;SDS011;964;42.606;23.588;2024-03-02T04:59:18;36.57;;;20.70;;
1925;SDS011;964;42.606;23.588;2024-03-02T05:01:45;33.07;;;19.67;;
1925;SDS011;964;42.606;23.588;2024-03-02T05:04:12;43.03;;;22.83;;
1925;SDS011;964;42.606;23.588;2024-03-02T05:06:40;39.57;;;22.40;;
1925;SDS011;964;42.606;23.588;2024-03-02T05:09:07;46.57;;;22.10;;
1925;SDS011;964;42.606;23.588;2024-03-02T05:11:34;33.03;;;19.47;;
1925;SDS011;964;42.606;23.588;2024-03-02T05:14:16;31.77;;;18.47;;
1925;SDS011;964;42.606;23.588;2024-03-02T05:16:43;29.43;;;16.23;;
1925;SDS011;964;42.606;23.588;2024-03-02T05:19:10;29.97;;;15.40;;
1925;SDS011;964;42.606;23.588;2024-03-02T05:21:36;38.43;;;18.87;;
1925;SDS011;964;42.606;23.588;2024-03-02T05:24:03;31.17;;;15.90;;
1925;SDS011;964;42.606;23.588;2024-03-02T05:26:30;30.87;;;15.20;;
1925;SDS011;964;42.606;23.588;2024-03-02T05:28:57;29.00;;;16.00;;
1925;SDS011;964;42.606;23.588;2024-03-02T05:31:25;31.67;;;14.97;;
1925;SDS011;964;42.606;23.588;2024-03-02T05:33:53;27.13;;;14.50;;
1925;SDS011;964;42.606;23.588;2024-03-02T05:36:20;36.90;;;16.67;;
1925;SDS011;964;42.606;23.588;2024-03-02T05:38:47;29.43;;;15.43;;
1925;SDS011;964;42.606;23.588;2024-03-02T05:41:13;29.33;;;15.70;;
1925;SDS011;964;42.606;23.588;2024-03-02T05:43:40;29.73;;;16.10;;
1925;SDS011;964;42.606;23.588;2024-03-02T05:46:07;29.23;;;14.53;;
1925;SDS011;964;42.606;23.588;2024-03-02T05:48:35;34.20;;;18.67;;
1925;SDS011;964;42.606;23.588;2024-03-02T05:51:02;31.57;;;17.20;;
1925;SDS011;964;42.606;23.588;2024-03-02T05:53:29;31.00;;;17.10;;
1925;SDS011;964;42.606;23.588;2024-03-02T05:55:56;35.70;;;18.90;;
1925;SDS011;964;42.606;23.588;2024-03-02T05:58:23;31.53;;;17.77;;
1925;SDS011;964;42.606;23.588;2024-03-02T06:01:02;32.10;;;17.93;;
1925;SDS011;964;42.606;23.588;2024-03-02T06:06:19;29.80;;;17.70;;
1925;SDS011;964;42.606;23.588;2024-03-02T06:08:46;30.57;;;16.40;;
1925;SDS011;964;42.606;23.588;2024-03-02T06:11:13;32.00;;;18.53;;
1925;SDS011;964;42.606;23.588;2024-03-02T06:13:40;29.50;;;17.67;;
1925;SDS011;964;42.606;23.588;2024-03-02T06:16:06;32.13;;;17.70;;
1925;SDS011;964;42.606;23.588;2024-03-02T06:18:34;36.50;;;19.40;;
1925;SDS011;964;42.606;23.588;2024-03-02T06:21:02;34.57;;;18.70;;
1925;SDS011;964;42.606;23.588;2024-03-02T06:23:30;36.57;;;20.70;;
1925;SDS011;964;42.606;23.588;2024-03-02T06:25:57;34.90;;;20.03;;
1925;SDS011;964;42.606;23.588;2024-03-02T06:28:24;37.80;;;20.27;;
1925;SDS011;964;42.606;23.588;2024-03-02T06:30:50;35.10;;;21.50;;
1925;SDS011;964;42.606;23.588;2024-03-02T06:33:17;36.43;;;22.53;;
1925;SDS011;964;42.606;23.588;2024-03-02T06:35:44;35.27;;;21.70;;
1925;SDS011;964;42.606;23.588;2024-03-02T06:38:12;42.73;;;21.20;;
1925;SDS011;964;42.606;23.588;2024-03-02T06:40:39;37.60;;;21.30;;
1925;SDS011;964;42.606;23.588;2024-03-02T06:43:06;35.43;;;21.53;;
1925;SDS011;964;42.606;23.588;2024-03-02T06:45:32;35.63;;;19.43;;
1925;SDS011;964;42.606;23.588;2024-03-02T06:47:59;30.90;;;19.13;;
1925;SDS011;964;42.606;23.588;2024-03-02T06:50:26;30.60;;;18.60;;
1925;SDS011;964;42.606;23.588;2024-03-02T06:52:53;38.50;;;18.90;;
1925;SDS011;964;42.606;23.588;2024-03-02T06:55:22;29.70;;;17.37;;
1925;SDS011;964;42.606;23.588;2024-03-02T06:57:49;35.80;;;17.70;;
1925;SDS011;964;42.606;23.588;2024-03-02T07:00:16;31.93;;;19.27;;
1925;SDS011;964;42.606;23.588;2024-03-02T07:02:45;29.80;;;16.80;;
1925;SDS011;964;42.606;23.588;2024-03-02T07:05:12;31.00;;;18.60;;
1925;SDS011;964;42.606;23.588;2024-03-02T07:07:39;33.60;;;19.50;;
1925;SDS011;964;42.606;23.588;2024-03-02T07:10:06;34.50;;;18.87;;
1925;SDS011;964;42.606;23.588;2024-03-02T07:12:35;39.10;;;21.17;;
1925;SDS011;964;42.606;23.588;2024-03-02T07:15:02;39.80;;;21.77;;
1925;SDS011;964;42.606;23.588;2024-03-02T07:17:50;22.63;;;15.53;;
1925;SDS011;964;42.606;23.588;2024-03-02T07:20:17;29.17;;;16.37;;
1925;SDS011;964;42.606;23.588;2024-03-02T07:22:44;29.80;;;16.73;;
1925;SDS011;964;42.606;23.588;2024-03-02T07:25:11;28.67;;;15.27;;
1925;SDS011;964;42.606;23.588;2024-03-02T07:27:39;28.60;;;15.70;;
1925;SDS011;964;42.606;23.588;2024-03-02T07:30:06;29.60;;;15.10;;
1925;SDS011;964;42.606;23.588;2024-03-02T07:32:33;26.77;;;16.87;;
1925;SDS011;964;42.606;23.588;2024-03-02T07:35:00;28.63;;;16.40;;
1925;SDS011;964;42.606;23.588;2024-03-02T07:37:28;28.07;;;16.10;;
1925;SDS011;964;42.606;23.588;2024-03-02T07:39:55;25.50;;;13.83;;
1925;SDS011;964;42.606;23.588;2024-03-02T07:42:22;28.30;;;17.47;;
1925;SDS011;964;42.606;23.588;2024-03-02T07:44:50;28.63;;;15.80;;
1925;SDS011;964;42.606;23.588;2024-03-02T07:47:17;28.03;;;15.10;;
1925;SDS011;964;42.606;23.588;2024-03-02T07:49:44;49.90;;;28.10;;
1925;SDS011;964;42.606;23.588;2024-03-02T07:52:11;40.07;;;23.43;;
1925;SDS011;964;42.606;23.588;2024-03-02T07:54:38;33.20;;;16.07;;
1925;SDS011;964;42.606;23.588;2024-03-02T07:57:09;33.90;;;19.07;;
1925;SDS011;964;42.606;23.588;2024-03-02T07:59:35;26.90;;;13.73;;
1925;SDS011;964;42.606;23.588;2024-03-02T08:02:05;22.80;;;12.80;;
1925;SDS011;964;42.606;23.588;2024-03-02T08:04:32;23.43;;;12.60;;
1925;SDS011;964;42.606;23.588;2024-03-02T08:06:59;36.60;;;18.90;;
1925;SDS011;964;42.606;23.588;2024-03-02T08:09:25;23.80;;;13.73;;
1925;SDS011;964;42.606;23.588;2024-03-02T08:11:52;31.90;;;18.00;;
1925;SDS011;964;42.606;23.588;2024-03-02T08:14:19;37.10;;;17.17;;
1925;SDS011;964;42.606;23.588;2024-03-02T08:16:46;161.10;;;67.40;;
1925;SDS011;964;42.606;23.588;2024-03-02T08:19:14;75.00;;;36.20;;
1925;SDS011;964;42.606;23.588;2024-03-02T08:21:41;31.93;;;19.10;;
1925;SDS011;964;42.606;23.588;2024-03-02T08:24:09;45.77;;;22.70;;
1925;SDS011;964;42.606;23.588;2024-03-02T08:26:36;29.03;;;16.17;;
1925;SDS011;964;42.606;23.588;2024-03-02T08:29:03;27.73;;;14.40;;
1925;SDS011;964;42.606;23.588;2024-03-02T08:31:30;36.40;;;20.37;;
1925;SDS011;964;42.606;23.588;2024-03-02T08:33:56;26.63;;;16.20;;
1925;SDS011;964;42.606;23.588;2024-03-02T08:36:25;31.77;;;20.60;;
1925;SDS011;964;42.606;23.588;2024-03-02T08:38:52;41.73;;;25.00;;
1925;SDS011;964;42.606;23.588;2024-03-02T08:41:19;32.60;;;20.00;;
1925;SDS011;964;42.606;23.588;2024-03-02T08:43:46;34.73;;;23.73;;
1925;SDS011;964;42.606;23.588;2024-03-02T08:46:13;37.53;;;26.27;;
1925;SDS011;964;42.606;23.588;2024-03-02T08:48:40;33.97;;;19.80;;
1925;SDS011;964;42.606;23.588;2024-03-02T08:51:07;23.70;;;13.53;;
1925;SDS011;964;42.606;23.588;2024-03-02T08:53:36;25.60;;;15.70;;
1925;SDS011;964;42.606;23.588;2024-03-02T08:56:04;27.80;;;15.80;;
1925;SDS011;964;42.606;23.588;2024-03-02T08:58:31;21.60;;;14.23;;
1925;SDS011;964;42.606;23.588;2024-03-02T09:00:58;76.87;;;42.63;;
1925;SDS011;964;42.606;23.588;2024-03-02T09:03:25;26.20;;;16.30;;
1925;SDS011;964;42.606;23.588;2024-03-02T09:05:52;37.67;;;25.87;;
1925;SDS011;964;42.606;23.588;2024-03-02T09:08:19;39.50;;;26.70;;
1925;SDS011;964;42.606;23.588;2024-03-02T09:10:47;37.30;;;22.17;;
1925;SDS011;964;42.606;23.588;2024-03-02T09:13:14;37.80;;;22.27;;
1925;SDS011;964;42.606;23.588;2024-03-02T09:15:41;46.73;;;34.00;;
1925;SDS011;964;42.606;23.588;2024-03-02T09:18:09;21.77;;;13.97;;
1925;SDS011;964;42.606;23.588;2024-03-02T09:20:36;20.47;;;13.97;;
1925;SDS011;964;42.606;23.588;2024-03-02T09:23:03;42.73;;;30.10;;
1925;SDS011;964;42.606;23.588;2024-03-02T09:25:30;33.00;;;18.87;;
1925;SDS011;964;42.606;23.588;2024-03-02T09:27:58;27.47;;;15.27;;
1925;SDS011;964;42.606;23.588;2024-03-02T09:30:25;29.00;;;16.73;;
1925;SDS011;964;42.606;23.588;2024-03-02T09:32:51;80.77;;;31.20;;
1925;SDS011;964;42.606;23.588;2024-03-02T09:35:18;89.47;;;34.20;;
1925;SDS011;964;42.606;23.588;2024-03-02T09:37:45;47.30;;;21.90;;
1925;SDS011;964;42.606;23.588;2024-03-02T09:40:12;85.50;;;36.43;;
1925;SDS011;964;42.606;23.588;2024-03-02T09:42:41;65.23;;;26.80;;
1925;SDS011;964;42.606;23.588;2024-03-02T09:45:10;44.13;;;20.40;;
1925;SDS011;964;42.606;23.588;2024-03-02T09:47:37;16.63;;;10.37;;
1925;SDS011;964;42.606;23.588;2024-03-02T09:50:05;91.40;;;37.87;;
1925;SDS011;964;42.606;23.588;2024-03-02T09:52:33;30.50;;;14.00;;
1925;SDS011;964;42.606;23.588;2024-03-02T09:55:01;41.17;;;17.00;;
1925;SDS011;964;42.606;23.588;2024-03-02T09:57:30;31.10;;;17.60;;
1925;SDS011;964;42.606;23.588;2024-03-02T09:59:57;60.63;;;22.73;;
1925;SDS011;964;42.606;23.588;2024-03-02T10:02:25;25.73;;;12.20;;
1925;SDS011;964;42.606;23.588;2024-03-02T10:04:52;50.73;;;17.73;;
1925;SDS011;964;42.606;23.588;2024-03-02T10:07:18;32.13;;;13.93;;
1925;SDS011;964;42.606;23.588;2024-03-02T10:09:46;20.30;;;10.27;;
1925;SDS011;964;42.606;23.588;2024-03-02T10:12:13;16.17;;;8.50;;
1925;SDS011;964;42.606;23.588;2024-03-02T10:14:40;11.90;;;7.70;;
1925;SDS011;964;42.606;23.588;2024-03-02T10:17:08;21.47;;;12.57;;
1925;SDS011;964;42.606;23.588;2024-03-02T10:19:38;70.03;;;23.67;;
1925;SDS011;964;42.606;23.588;2024-03-02T10:22:06;23.00;;;11.40;;
1925;SDS011;964;42.606;23.588;2024-03-02T10:24:37;71.53;;;28.50;;
1925;SDS011;964;42.606;23.588;2024-03-02T10:27:09;83.83;;;36.40;;
1925;SDS011;964;42.606;23.588;2024-03-02T10:29:39;33.30;;;18.50;;
1925;SDS011;964;42.606;23.588;2024-03-02T10:32:10;21.03;;;13.50;;
1925;SDS011;964;42.606;23.588;2024-03-02T10:34:40;54.23;;;24.33;;
1925;SDS011;964;42.606;23.588;2024-03-02T10:37:08;20.73;;;12.33;;
1925;SDS011;964;42.606;23.588;2024-03-02T10:39:37;15.90;;;9.20;;
1925;SDS011;964;42.606;23.588;2024-03-02T10:42:05;13.20;;;8.93;;
1925;SDS011;964;42.606;23.588;2024-03-02T10:44:32;9.37;;;6.23;;
1925;SDS011;964;42.606;23.588;2024-03-02T10:47:00;9.90;;;7.60;;
1925;SDS011;964;42.606;23.588;2024-03-02T10:49:29;11.30;;;7.47;;
1925;SDS011;964;42.606;23.588;2024-03-02T10:51:58;9.03;;;6.40;;
1925;SDS011;964;42.606;23.588;2024-03-02T10:54:25;11.70;;;6.53;;
1925;SDS011;964;42.606;23.588;2024-03-02T10:56:55;10.93;;;7.73;;
1925;SDS011;964;42.606;23.588;2024-03-02T10:59:26;7.07;;;5.70;;
1925;SDS011;964;42.606;23.588;2024-03-02T11:01:56;18.93;;;10.90;;
1925;SDS011;964;42.606;23.588;2024-03-02T11:04:25;14.77;;;9.47;;
1925;SDS011;964;42.606;23.588;2024-03-02T11:06:54;11.13;;;6.90;;
1925;SDS011;964;42.606;23.588;2024-03-02T11:09:26;8.87;;;7.30;;
1925;SDS011;964;42.606;23.588;2024-03-02T11:12:00;14.67;;;8.73;;
1925;SDS011;964;42.606;23.588;2024-03-02T11:14:30;12.03;;;7.80;;
1925;SDS011;964;42.606;23.588;2024-03-02T11:16:58;13.60;;;8.23;;
1925;SDS011;964;42.606;23.588;2024-03-02T11:19:28;13.07;;;8.63;;
1925;SDS011;964;42.606;23.588;2024-03-02T11:21:58;12.77;;;8.53;;
1925;SDS011;964;42.606;23.588;2024-03-02T11:24:29;13.13;;;9.00;;
1925;SDS011;964;42.606;23.588;2024-03-02T11:27:00;26.63;;;14.43;;
1925;SDS011;964;42.606;23.588;2024-03-02T11:29:43;17.30;;;10.90;;
1925;SDS011;964;42.606;23.588;2024-03-02T11:32:13;5.63;;;4.90;;
1925;SDS011;964;42.606;23.588;2024-03-02T11:34:42;5.70;;;4.50;;
1925;SDS011;964;42.606;23.588;2024-03-02T11:37:13;6.90;;;5.40;;
1925;SDS011;964;42.606;23.588;2024-03-02T11:39:41;7.67;;;5.40;;
1925;SDS011;964;42.606;23.588;2024-03-02T11:42:09;9.60;;;7.57;;
1925;SDS011;964;42.606;23.588;2024-03-02T11:44:39;7.90;;;6.63;;
1925;SDS011;964;42.606;23.588;2024-03-02T11:47:07;7.63;;;5.23;;
1925;SDS011;964;42.606;23.588;2024-03-02T11:49:37;8.60;;;6.40;;
1925;SDS011;964;42.606;23.588;2024-03-02T11:52:05;11.20;;;8.07;;
1925;SDS011;964;42.606;23.588;2024-03-02T11:54:34;6.67;;;5.97;;
1925;SDS011;964;42.606;23.588;2024-03-02T11:57:04;8.70;;;6.80;;
1925;SDS011;964;42.606;23.588;2024-03-02T11:59:32;9.50;;;6.50;;
1925;SDS011;964;42.606;23.588;2024-03-02T12:01:59;9.40;;;7.00;;
1925;SDS011;964;42.606;23.588;2024-03-02T12:04:26;6.20;;;4.97;;
1925;SDS011;964;42.606;23.588;2024-03-02T12:06:54;5.70;;;5.10;;
1925;SDS011;964;42.606;23.588;2024-03-02T12:09:26;6.50;;;5.17;;
1925;SDS011;964;42.606;23.588;2024-03-02T12:12:05;12.00;;;5.67;;
1925;SDS011;964;42.606;23.588;2024-03-02T12:14:33;8.43;;;6.97;;
1925;SDS011;964;42.606;23.588;2024-03-02T12:17:01;7.20;;;6.27;;
1925;SDS011;964;42.606;23.588;2024-03-02T12:19:28;5.90;;;4.77;;
1925;SDS011;964;42.606;23.588;2024-03-02T12:21:55;12.40;;;9.50;;
1925;SDS011;964;42.606;23.588;2024-03-02T12:24:22;9.80;;;8.13;;
1925;SDS011;964;42.606;23.588;2024-03-02T12:26:50;8.33;;;5.83;;
1925;SDS011;964;42.606;23.588;2024-03-02T12:29:19;7.10;;;6.40;;
1925;SDS011;964;42.606;23.588;2024-03-02T12:31:47;13.57;;;10.87;;
1925;SDS011;964;42.606;23.588;2024-03-02T12:34:15;16.43;;;11.20;;
1925;SDS011;964;42.606;23.588;2024-03-02T12:36:43;15.07;;;12.00;;
1925;SDS011;964;42.606;23.588;2024-03-02T12:39:14;16.73;;;12.10;;
1925;SDS011;964;42.606;23.588;2024-03-02T12:41:42;17.13;;;13.27;;
1925;SDS011;964;42.606;23.588;2024-03-02T12:44:09;18.40;;;10.97;;
1925;SDS011;964;42.606;23.588;2024-03-02T12:46:37;17.43;;;11.67;;
1925;SDS011;964;42.606;23.588;2024-03-02T12:49:08;12.40;;;9.67;;
1925;SDS011;964;42.606;23.588;2024-03-02T12:51:39;17.07;;;12.30;;
1925;SDS011;964;42.606;23.588;2024-03-02T12:54:07;20.10;;;12.70;;
1925;SDS011;964;42.606;23.588;2024-03-02T12:56:35;31.93;;;17.80;;
1925;SDS011;964;42.606;23.588;2024-03-02T12:59:02;41.67;;;24.67;;
1925;SDS011;964;42.606;23.588;2024-03-02T13:01:29;69.90;;;33.27;;
1925;SDS011;964;42.606;23.588;2024-03-02T13:03:58;46.77;;;27.07;;
1925;SDS011;964;42.606;23.588;2024-03-02T13:06:25;36.77;;;22.17;;
1925;SDS011;964;42.606;23.588;2024-03-02T13:08:54;29.57;;;17.97;;
1925;SDS011;964;42.606;23.588;2024-03-02T13:11:21;23.07;;;14.07;;
1925;SDS011;964;42.606;23.588;2024-03-02T13:13:49;18.67;;;12.40;;
1925;SDS011;964;42.606;23.588;2024-03-02T13:16:16;19.47;;;12.97;;
1925;SDS011;964;42.606;23.588;2024-03-02T13:18:45;18.20;;;14.70;;
1925;SDS011;964;42.606;23.588;2024-03-02T13:21:13;15.23;;;11.77;;
1925;SDS011;964;42.606;23.588;2024-03-02T13:23:40;15.50;;;10.63;;
1925;SDS011;964;42.606;23.588;2024-03-02T13:26:07;13.03;;;9.60;;
1925;SDS011;964;42.606;23.588;2024-03-02T13:28:35;14.10;;;10.90;;
1925;SDS011;964;42.606;23.588;2024-03-02T13:31:03;11.63;;;9.10;;
1925;SDS011;964;42.606;23.588;2024-03-02T13:33:31;15.47;;;10.83;;
1925;SDS011;964;42.606;23.588;2024-03-02T13:35:58;11.70;;;8.80;;
1925;SDS011;964;42.606;23.588;2024-03-02T13:38:26;12.20;;;10.20;;
1925;SDS011;964;42.606;23.588;2024-03-02T13:40:52;13.93;;;9.10;;
1925;SDS011;964;42.606;23.588;2024-03-02T13:43:19;11.97;;;9.07;;
1925;SDS011;964;42.606;23.588;2024-03-02T13:45:47;11.60;;;8.80;;
1925;SDS011;964;42.606;23.588;2024-03-02T13:48:14;13.03;;;9.40;;
1925;SDS011;964;42.606;23.588;2024-03-02T13:50:41;12.53;;;8.97;;
1925;SDS011;964;42.606;23.588;2024-03-02T13:53:08;11.60;;;8.90;;
1925;SDS011;964;42.606;23.588;2024-03-02T13:55:36;13.67;;;9.47;;
1925;SDS011;964;42.606;23.588;2024-03-02T13:58:04;13.90;;;10.07;;
1925;SDS011;964;42.606;23.588;2024-03-02T14:00:30;13.17;;;9.17;;
1925;SDS011;964;42.606;23.588;2024-03-02T14:02:57;12.83;;;9.30;;
1925;SDS011;964;42.606;23.588;2024-03-02T14:05:24;13.13;;;9.30;;
1925;SDS011;964;42.606;23.588;2024-03-02T14:07:51;13.77;;;9.23;;
1925;SDS011;964;42.606;23.588;2024-03-02T14:10:17;12.87;;;8.43;;
1925;SDS011;964;42.606;23.588;2024-03-02T14:12:48;15.13;;;9.37;;
1925;SDS011;964;42.606;23.588;2024-03-02T14:15:15;11.20;;;8.63;;
1925;SDS011;964;42.606;23.588;2024-03-02T14:17:42;11.00;;;8.40;;
1925;SDS011;964;42.606;23.588;2024-03-02T14:20:09;12.20;;;8.33;;
1925;SDS011;964;42.606;23.588;2024-03-02T14:22:38;13.43;;;8.77;;
1925;SDS011;964;42.606;23.588;2024-03-02T14:25:05;13.47;;;9.90;;
1925;SDS011;964;42.606;23.588;2024-03-02T14:27:32;12.40;;;9.00;;
1925;SDS011;964;42.606;23.588;2024-03-02T14:30:02;14.40;;;10.13;;
1925;SDS011;964;42.606;23.588;2024-03-02T14:32:30;11.93;;;8.00;;
1925;SDS011;964;42.606;23.588;2024-03-02T14:34:57;17.30;;;11.23;;
1925;SDS011;964;42.606;23.588;2024-03-02T14:37:23;15.10;;;9.30;;
1925;SDS011;964;42.606;23.588;2024-03-02T14:39:50;15.60;;;10.40;;
1925;SDS011;964;42.606;23.588;2024-03-02T14:42:17;16.40;;;10.33;;
1925;SDS011;964;42.606;23.588;2024-03-02T14:44:44;14.63;;;10.20;;
1925;SDS011;964;42.606;23.588;2024-03-02T14:47:12;13.80;;;9.97;;
1925;SDS011;964;42.606;23.588;2024-03-02T14:49:39;15.13;;;11.07;;
1925;SDS011;964;42.606;23.588;2024-03-02T14:52:06;16.37;;;10.33;;
1925;SDS011;964;42.606;23.588;2024-03-02T14:54:34;18.00;;;11.30;;
1925;SDS011;964;42.606;23.588;2024-03-02T14:57:01;12.83;;;9.77;;
1925;SDS011;964;42.606;23.588;2024-03-02T14:59:28;14.43;;;10.27;;